createdAt,value
2018-04-28T00:00:09.182Z,0.00
2018-04-28T00:01:09.164Z,0.00
2018-04-28T00:02:09.147Z,0.00
2018-04-28T00:03:09.131Z,0.00
2018-04-28T00:04:09.113Z,0.00
2018-04-28T00:05:09.097Z,0.00
2018-04-28T00:06:09.084Z,0.00
2018-04-28T00:07:09.063Z,0.00
2018-04-28T00:08:09.047Z,0.00
2018-04-28T00:09:09.031Z,0.00
2018-04-28T00:10:09.013Z,0.00
2018-04-28T00:11:08.995Z,0.00
2018-04-28T00:12:08.977Z,0.00
2018-04-28T00:13:08.966Z,0.00
2018-04-28T00:14:08.944Z,0.00
2018-04-28T00:15:08.929Z,0.00
2018-04-28T00:16:08.913Z,0.00
2018-04-28T00:17:08.894Z,0.00
2018-04-28T00:18:08.881Z,0.00
2018-04-28T00:19:08.859Z,0.00
2018-04-28T00:20:08.845Z,0.00
2018-04-28T00:21:08.826Z,0.00
2018-04-28T00:22:08.811Z,0.00
2018-04-28T00:23:08.794Z,0.00
2018-04-28T00:24:08.775Z,0.00
2018-04-28T00:25:08.759Z,0.00
2018-04-28T00:26:08.743Z,0.00
2018-04-28T00:27:08.727Z,0.00
2018-04-28T00:28:08.707Z,0.00
2018-04-28T00:29:08.690Z,0.00
2018-04-28T00:30:08.684Z,0.00
2018-04-28T00:31:08.656Z,0.00
2018-04-28T00:32:08.640Z,0.00
2018-04-28T00:33:08.621Z,0.00
2018-04-28T00:34:08.619Z,0.00
2018-04-28T00:35:08.587Z,0.00
2018-04-28T00:36:08.567Z,0.00
2018-04-28T00:37:08.557Z,0.00
2018-04-28T00:38:08.537Z,0.00
2018-04-28T00:39:08.525Z,0.00
2018-04-28T00:40:08.502Z,0.00
2018-04-28T00:41:08.492Z,0.00
2018-04-28T00:42:08.468Z,0.00
2018-04-28T00:43:08.454Z,0.00
2018-04-28T00:44:08.432Z,0.00
2018-04-28T00:45:08.417Z,0.00
2018-04-28T00:46:08.400Z,0.00
2018-04-28T00:47:08.381Z,0.00
2018-04-28T00:48:08.364Z,0.00
2018-04-28T00:49:08.348Z,0.00
2018-04-28T00:50:08.330Z,0.00
2018-04-28T00:51:08.397Z,0.00
2018-04-28T00:52:08.296Z,0.00
2018-04-28T00:53:08.278Z,0.00
2018-04-28T00:54:08.263Z,0.00
2018-04-28T00:55:08.246Z,0.00
2018-04-28T00:56:08.235Z,0.00
2018-04-28T00:57:08.210Z,0.00
2018-04-28T00:58:08.207Z,0.00
2018-04-28T00:59:08.175Z,0.00
2018-04-28T01:00:08.157Z,0.00
2018-04-28T01:01:08.139Z,0.00
2018-04-28T01:02:08.124Z,0.00
2018-04-28T01:03:08.108Z,0.00
2018-04-28T01:04:08.089Z,0.00
2018-04-28T01:05:08.070Z,0.00
2018-04-28T01:06:08.056Z,0.00
2018-04-28T01:07:08.040Z,0.00
2018-04-28T01:08:08.019Z,0.00
2018-04-28T01:09:08.006Z,0.00
2018-04-28T01:10:08.058Z,0.00
2018-04-28T01:11:07.967Z,0.00
2018-04-28T01:12:07.949Z,0.00
2018-04-28T01:13:07.933Z,0.00
2018-04-28T01:14:07.918Z,0.00
2018-04-28T01:15:07.899Z,0.00
2018-04-28T01:16:07.888Z,0.00
2018-04-28T01:17:07.866Z,0.00
2018-04-28T01:18:07.850Z,0.00
2018-04-28T01:19:07.838Z,0.00
2018-04-28T01:20:07.815Z,0.00
2018-04-28T01:21:07.794Z,0.00
2018-04-28T01:22:07.777Z,0.00
2018-04-28T01:23:07.757Z,0.00
2018-04-28T01:24:07.742Z,0.00
2018-04-28T01:25:07.725Z,0.00
2018-04-28T01:26:07.709Z,0.00
2018-04-28T01:27:07.690Z,0.00
2018-04-28T01:28:07.676Z,0.00
2018-04-28T01:29:07.656Z,0.00
2018-04-28T01:30:07.638Z,0.00
2018-04-28T01:31:07.621Z,0.00
2018-04-28T01:32:07.601Z,0.00
2018-04-28T01:33:07.589Z,0.00
2018-04-28T01:34:07.567Z,0.00
2018-04-28T01:35:07.552Z,0.00
2018-04-28T01:36:07.531Z,0.00
2018-04-28T01:37:07.516Z,0.00
2018-04-28T01:38:07.498Z,0.00
2018-04-28T01:39:07.480Z,0.00
2018-04-28T01:40:07.461Z,0.00
2018-04-28T01:41:07.445Z,0.00
2018-04-28T01:42:07.425Z,0.00
2018-04-28T01:43:07.409Z,0.00
2018-04-28T01:44:07.390Z,0.00
2018-04-28T01:45:07.374Z,0.00
2018-04-28T01:46:07.357Z,0.00
2018-04-28T01:47:07.340Z,0.00
2018-04-28T01:48:07.320Z,0.00
2018-04-28T01:49:07.304Z,0.00
2018-04-28T01:50:07.285Z,0.00
2018-04-28T01:51:07.271Z,0.00
2018-04-28T01:52:07.252Z,0.00
2018-04-28T01:53:07.237Z,0.00
2018-04-28T01:54:07.222Z,0.00
2018-04-28T01:55:07.198Z,0.00
2018-04-28T01:56:07.180Z,0.00
2018-04-28T01:57:07.162Z,0.00
2018-04-28T01:58:07.150Z,0.00
2018-04-28T01:59:07.127Z,0.00
2018-04-28T02:00:07.110Z,0.00
2018-04-28T02:01:07.090Z,0.00
2018-04-28T02:02:07.075Z,0.00
2018-04-28T02:03:07.058Z,0.00
2018-04-28T02:04:07.037Z,0.00
2018-04-28T02:05:07.023Z,0.00
2018-04-28T02:06:07.003Z,0.00
2018-04-28T02:07:06.986Z,0.00
2018-04-28T02:08:06.968Z,0.00
2018-04-28T02:09:06.953Z,0.00
2018-04-28T02:10:06.933Z,0.00
2018-04-28T02:11:06.916Z,0.00
2018-04-28T02:12:06.899Z,0.00
2018-04-28T02:13:06.884Z,0.00
2018-04-28T02:14:06.863Z,0.00
2018-04-28T02:15:06.845Z,0.00
2018-04-28T02:16:06.826Z,0.00
2018-04-28T02:17:06.809Z,0.00
2018-04-28T02:18:06.794Z,0.00
2018-04-28T02:19:06.779Z,0.00
2018-04-28T02:20:06.755Z,0.00
2018-04-28T02:21:06.738Z,0.00
2018-04-28T02:22:06.719Z,0.00
2018-04-28T02:23:06.703Z,0.00
2018-04-28T02:24:06.684Z,0.00
2018-04-28T02:25:06.665Z,0.00
2018-04-28T02:26:06.649Z,0.00
2018-04-28T02:27:06.631Z,0.00
2018-04-28T02:28:06.615Z,0.00
2018-04-28T02:29:06.594Z,0.00
2018-04-28T02:30:06.578Z,0.00
2018-04-28T02:31:06.560Z,0.00
2018-04-28T02:32:06.542Z,0.00
2018-04-28T02:33:06.526Z,0.00
2018-04-28T02:34:06.508Z,0.00
2018-04-28T02:35:06.491Z,0.00
2018-04-28T02:36:06.477Z,0.00
2018-04-28T02:37:06.453Z,0.00
2018-04-28T02:38:06.434Z,0.00
2018-04-28T02:39:06.415Z,0.00
2018-04-28T02:40:06.402Z,0.00
2018-04-28T02:41:06.379Z,0.00
2018-04-28T02:42:06.361Z,0.00
2018-04-28T02:43:06.344Z,0.00
2018-04-28T02:44:06.329Z,0.00
2018-04-28T02:45:06.308Z,0.00
2018-04-28T02:46:06.291Z,0.00
2018-04-28T02:47:06.272Z,0.00
2018-04-28T02:48:06.256Z,0.00
2018-04-28T02:49:06.237Z,0.00
2018-04-28T02:50:06.313Z,0.00
2018-04-28T02:51:06.198Z,0.00
2018-04-28T02:52:06.188Z,0.00
2018-04-28T02:53:06.167Z,0.00
2018-04-28T02:54:06.145Z,0.00
2018-04-28T02:55:06.127Z,0.00
2018-04-28T02:56:06.111Z,0.00
2018-04-28T02:57:06.099Z,0.00
2018-04-28T02:58:06.074Z,0.00
2018-04-28T02:59:06.059Z,0.00
2018-04-28T03:00:06.038Z,0.00
2018-04-28T03:01:06.021Z,0.00
2018-04-28T03:02:06.001Z,0.00
2018-04-28T03:03:05.982Z,0.00
2018-04-28T03:04:05.966Z,0.00
2018-04-28T03:05:05.946Z,0.00
2018-04-28T03:06:05.929Z,0.00
2018-04-28T03:07:05.911Z,0.00
2018-04-28T03:08:05.896Z,4.00
2018-04-28T03:09:05.875Z,4.00
2018-04-28T03:10:05.864Z,4.00
2018-04-28T03:11:05.837Z,0.00
2018-04-28T03:12:05.820Z,4.00
2018-04-28T03:13:05.805Z,4.00
2018-04-28T03:14:05.783Z,8.00
2018-04-28T03:15:05.769Z,4.00
2018-04-28T03:16:05.745Z,8.00
2018-04-28T03:17:05.728Z,8.00
2018-04-28T03:18:05.712Z,8.00
2018-04-28T03:19:05.691Z,8.00
2018-04-28T03:20:05.673Z,16.00
2018-04-28T03:21:05.655Z,16.00
2018-04-28T03:22:05.641Z,20.00
2018-04-28T03:23:05.617Z,20.00
2018-04-28T03:24:05.601Z,20.00
2018-04-28T03:25:05.585Z,24.00
2018-04-28T03:26:05.564Z,28.00
2018-04-28T03:27:05.548Z,36.00
2018-04-28T03:28:05.527Z,40.00
2018-04-28T03:29:05.507Z,40.00
2018-04-28T03:30:05.493Z,48.00
2018-04-28T03:31:05.472Z,56.00
2018-04-28T03:32:05.453Z,60.00
2018-04-28T03:33:05.440Z,64.00
2018-04-28T03:34:05.417Z,72.00
2018-04-28T03:35:05.415Z,84.00
2018-04-28T03:36:05.381Z,92.00
2018-04-28T03:37:05.362Z,104.00
2018-04-28T03:38:05.343Z,112.00
2018-04-28T03:39:05.376Z,124.00
2018-04-28T03:40:05.306Z,132.00
2018-04-28T03:41:05.292Z,144.00
2018-04-28T03:42:05.271Z,156.00
2018-04-28T03:43:05.251Z,168.00
2018-04-28T03:44:05.230Z,176.00
2018-04-28T03:45:05.214Z,192.00
2018-04-28T03:46:05.202Z,208.00
2018-04-28T03:47:05.182Z,216.00
2018-04-28T03:48:05.158Z,236.00
2018-04-28T03:49:05.141Z,248.00
2018-04-28T03:50:05.124Z,268.00
2018-04-28T03:51:05.104Z,284.00
2018-04-28T03:52:05.086Z,304.00
2018-04-28T03:53:05.068Z,324.00
2018-04-28T03:54:05.048Z,348.00
2018-04-28T03:55:05.080Z,368.00
2018-04-28T03:56:05.023Z,392.00
2018-04-28T03:57:04.996Z,420.00
2018-04-28T03:58:04.982Z,440.00
2018-04-28T03:59:04.955Z,468.00
2018-04-28T04:00:04.939Z,496.00
2018-04-28T04:01:04.919Z,528.00
2018-04-28T04:02:04.901Z,560.00
2018-04-28T04:03:04.882Z,592.00
2018-04-28T04:04:04.863Z,620.00
2018-04-28T04:05:04.845Z,644.00
2018-04-28T04:06:04.830Z,672.00
2018-04-28T04:07:04.813Z,704.00
2018-04-28T04:08:04.788Z,736.00
2018-04-28T04:09:04.771Z,768.00
2018-04-28T04:10:04.754Z,804.00
2018-04-28T04:11:04.734Z,832.00
2018-04-28T04:12:04.715Z,872.00
2018-04-28T04:13:04.696Z,908.00
2018-04-28T04:14:04.676Z,940.00
2018-04-28T04:15:04.661Z,976.00
2018-04-28T04:16:04.645Z,1004.00
2018-04-28T04:17:04.622Z,1040.00
2018-04-28T04:18:04.601Z,1072.00
2018-04-28T04:19:04.590Z,1104.00
2018-04-28T04:20:04.566Z,1132.00
2018-04-28T04:21:04.549Z,1160.00
2018-04-28T04:22:04.529Z,1180.00
2018-04-28T04:23:04.514Z,1216.00
2018-04-28T04:24:04.493Z,1240.00
2018-04-28T04:25:04.474Z,1268.00
2018-04-28T04:26:04.456Z,1288.00
2018-04-28T04:27:04.437Z,1304.00
2018-04-28T04:28:04.416Z,1332.00
2018-04-28T04:29:04.398Z,1352.00
2018-04-28T04:30:04.381Z,1368.00
2018-04-28T04:31:04.362Z,1380.00
2018-04-28T04:32:04.344Z,1400.00
2018-04-28T04:33:04.335Z,1412.00
2018-04-28T04:34:04.306Z,1436.00
2018-04-28T04:35:04.292Z,1448.00
2018-04-28T04:36:04.269Z,1468.00
2018-04-28T04:37:04.264Z,1480.00
2018-04-28T04:38:04.236Z,1496.00
2018-04-28T04:39:04.214Z,1512.00
2018-04-28T04:40:04.195Z,1540.00
2018-04-28T04:41:04.174Z,1580.00
2018-04-28T04:42:04.160Z,1596.00
2018-04-28T04:43:04.147Z,1612.00
2018-04-28T04:44:04.132Z,1632.00
2018-04-28T04:45:04.103Z,1648.00
2018-04-28T04:46:04.083Z,1668.00
2018-04-28T04:47:04.067Z,1692.00
2018-04-28T04:48:04.046Z,1712.00
2018-04-28T04:49:04.025Z,1740.00
2018-04-28T04:50:04.009Z,1756.00
2018-04-28T04:51:03.990Z,1772.00
2018-04-28T04:52:03.972Z,1800.00
2018-04-28T04:53:03.952Z,1828.00
2018-04-28T04:54:03.934Z,1860.00
2018-04-28T04:55:03.925Z,1904.00
2018-04-28T04:56:03.898Z,1940.00
2018-04-28T04:57:03.877Z,1968.00
2018-04-28T04:58:03.864Z,2004.00
2018-04-28T04:59:03.840Z,2040.00
2018-04-28T05:00:03.822Z,2088.00
2018-04-28T05:01:03.804Z,2144.00
2018-04-28T05:02:03.785Z,2200.00
2018-04-28T05:03:03.765Z,2264.00
2018-04-28T05:04:03.745Z,2352.00
2018-04-28T05:05:03.729Z,2424.00
2018-04-28T05:06:03.718Z,2488.00
2018-04-28T05:07:03.696Z,2552.00
2018-04-28T05:08:03.675Z,2592.00
2018-04-28T05:09:03.660Z,2668.00
2018-04-28T05:10:03.637Z,2768.00
2018-04-28T05:11:03.628Z,2876.00
2018-04-28T05:12:03.600Z,2956.00
2018-04-28T05:13:03.584Z,2964.00
2018-04-28T05:14:03.567Z,2916.00
2018-04-28T05:15:03.546Z,2932.00
2018-04-28T05:16:03.526Z,3052.00
2018-04-28T05:17:03.507Z,3232.00
2018-04-28T05:18:03.492Z,3392.00
2018-04-28T05:19:03.541Z,3484.00
2018-04-28T05:20:03.451Z,3708.00
2018-04-28T05:21:03.436Z,3776.00
2018-04-28T05:22:03.414Z,3760.00
2018-04-28T05:23:03.403Z,3668.00
2018-04-28T05:24:03.382Z,3636.00
2018-04-28T05:25:03.362Z,3512.00
2018-04-28T05:26:03.347Z,3388.00
2018-04-28T05:27:03.325Z,3332.00
2018-04-28T05:28:03.311Z,3252.00
2018-04-28T05:29:03.293Z,3248.00
2018-04-28T05:30:03.276Z,3300.00
2018-04-28T05:31:03.258Z,3336.00
2018-04-28T05:32:03.238Z,3364.00
2018-04-28T05:33:03.218Z,3448.00
2018-04-28T05:34:03.203Z,3444.00
2018-04-28T05:35:03.188Z,3392.00
2018-04-28T05:36:03.184Z,3308.00
2018-04-28T05:37:03.146Z,3216.00
2018-04-28T05:38:03.131Z,3192.00
2018-04-28T05:39:03.111Z,3200.00
2018-04-28T05:40:03.094Z,3316.00
2018-04-28T05:41:03.074Z,3380.00
2018-04-28T05:42:03.128Z,3440.00
2018-04-28T05:43:03.039Z,3492.00
2018-04-28T05:44:03.021Z,3560.00
2018-04-28T05:45:03.012Z,3640.00
2018-04-28T05:46:02.987Z,3768.00
2018-04-28T05:47:02.971Z,3852.00
2018-04-28T05:48:02.955Z,3944.00
2018-04-28T05:49:02.934Z,3992.00
2018-04-28T05:50:02.917Z,4032.00
2018-04-28T05:51:02.903Z,4004.00
2018-04-28T05:52:02.882Z,3940.00
2018-04-28T05:53:02.864Z,3872.00
2018-04-28T05:54:02.846Z,3872.00
2018-04-28T05:55:02.829Z,3852.00
2018-04-28T05:56:02.812Z,3808.00
2018-04-28T05:57:02.800Z,3908.00
2018-04-28T05:58:02.777Z,3964.00
2018-04-28T05:59:02.762Z,4020.00
2018-04-28T06:00:02.741Z,4092.00
2018-04-28T06:01:02.725Z,4200.00
2018-04-28T06:02:02.708Z,4396.00
2018-04-28T06:03:02.692Z,4664.00
2018-04-28T06:04:02.681Z,4940.00
2018-04-28T06:05:02.656Z,5108.00
2018-04-28T06:06:02.637Z,5144.00
2018-04-28T06:07:02.630Z,5196.00
2018-04-28T06:08:02.602Z,5328.00
2018-04-28T06:09:02.588Z,5388.00
2018-04-28T06:10:02.570Z,5472.00
2018-04-28T06:11:02.553Z,5448.00
2018-04-28T06:12:02.534Z,5356.00
2018-04-28T06:13:02.522Z,5260.00
2018-04-28T06:14:02.532Z,5364.00
2018-04-28T06:15:02.484Z,4740.00
2018-04-28T06:16:02.470Z,3664.00
2018-04-28T06:17:02.454Z,4400.00
2018-04-28T06:18:02.435Z,4428.00
2018-04-28T06:19:02.418Z,4588.00
2018-04-28T06:20:02.438Z,4708.00
2018-04-28T06:21:02.386Z,4780.00
2018-04-28T06:22:02.372Z,4928.00
2018-04-28T06:23:02.352Z,5172.00
2018-04-28T06:24:02.334Z,5720.00
2018-04-28T06:25:02.321Z,5956.00
2018-04-28T06:26:02.351Z,6000.00
2018-04-28T06:27:02.286Z,5928.00
2018-04-28T06:28:02.268Z,5768.00
2018-04-28T06:29:02.256Z,6420.00
2018-04-28T06:30:02.238Z,6996.00
2018-04-28T06:31:02.223Z,7476.00
2018-04-28T06:32:02.212Z,7744.00
2018-04-28T06:33:02.189Z,7988.00
2018-04-28T06:34:02.178Z,8012.00
2018-04-28T06:35:02.157Z,7732.00
2018-04-28T06:36:02.153Z,7524.00
2018-04-28T06:37:02.134Z,7616.00
2018-04-28T06:38:02.111Z,7240.00
2018-04-28T06:39:02.095Z,7072.00
2018-04-28T06:40:02.078Z,7448.00
2018-04-28T06:41:02.061Z,7740.00
2018-04-28T06:42:02.047Z,7660.00
2018-04-28T06:43:02.032Z,7428.00
2018-04-28T06:44:02.019Z,7092.00
2018-04-28T06:45:02.007Z,6676.00
2018-04-28T06:46:01.989Z,6668.00
2018-04-28T06:47:01.971Z,6796.00
2018-04-28T06:48:01.958Z,7116.00
2018-04-28T06:49:01.942Z,7080.00
2018-04-28T06:50:01.935Z,6888.00
2018-04-28T06:51:01.936Z,6680.00
2018-04-28T06:52:01.899Z,6852.00
2018-04-28T06:53:01.882Z,7256.00
2018-04-28T06:54:01.867Z,7752.00
2018-04-28T06:55:01.859Z,8208.00
2018-04-28T06:56:01.844Z,8120.00
2018-04-28T06:57:01.824Z,7812.00
2018-04-28T06:58:01.809Z,7704.00
2018-04-28T06:59:01.795Z,7836.00
2018-04-28T07:00:01.787Z,8036.00
2018-04-28T07:01:01.764Z,10216.00
2018-04-28T07:02:01.753Z,13368.00
2018-04-28T07:03:01.737Z,25024.00
2018-04-28T07:04:01.720Z,42144.00
2018-04-28T07:05:01.706Z,35648.00
2018-04-28T07:06:01.700Z,27040.00
2018-04-28T07:07:01.681Z,20544.00
2018-04-28T07:08:01.665Z,15068.00
2018-04-28T07:09:01.660Z,29152.00
2018-04-28T07:10:01.648Z,38176.00
2018-04-28T07:11:01.628Z,39424.00
2018-04-28T07:12:01.622Z,45536.00
2018-04-28T07:13:01.603Z,49184.00
2018-04-28T07:14:01.591Z,48480.00
2018-04-28T07:15:01.579Z,44416.00
2018-04-28T07:16:01.566Z,38432.00
2018-04-28T07:17:01.555Z,34336.00
2018-04-28T07:18:01.543Z,15088.00
2018-04-28T07:19:01.535Z,9560.00
2018-04-28T07:20:01.521Z,11412.00
2018-04-28T07:21:01.515Z,15968.00
2018-04-28T07:22:01.505Z,18112.00
2018-04-28T07:23:01.496Z,16896.00
2018-04-28T07:24:01.487Z,10708.00
2018-04-28T07:25:01.474Z,10848.00
2018-04-28T07:26:01.470Z,22752.00
2018-04-28T07:27:01.455Z,47328.00
2018-04-28T07:28:01.448Z,53024.00
2018-04-28T07:29:01.434Z,42624.00
2018-04-28T07:30:01.435Z,31584.00
2018-04-28T07:31:01.420Z,30624.00
2018-04-28T07:32:01.407Z,39360.00
2018-04-28T07:33:01.397Z,36192.00
2018-04-28T07:34:01.391Z,50784.00
2018-04-28T07:35:01.383Z,56576.00
2018-04-28T07:36:01.381Z,57248.00
2018-04-28T07:37:01.370Z,60768.00
2018-04-28T07:38:01.363Z,62944.00
2018-04-28T07:39:01.405Z,59584.00
2018-04-28T07:40:01.347Z,58528.00
2018-04-28T07:41:01.340Z,58016.00
2018-04-28T07:42:01.336Z,55872.00
2018-04-28T07:43:01.330Z,57312.00
2018-04-28T07:44:01.322Z,58560.00
2018-04-28T07:45:01.317Z,58752.00
2018-04-28T07:46:01.315Z,51264.00
2018-04-28T07:47:01.308Z,60768.00
2018-04-28T07:48:01.307Z,62400.00
2018-04-28T07:49:01.301Z,63552.00
2018-04-28T07:50:01.299Z,60864.00
2018-04-28T07:51:01.294Z,60928.00
2018-04-28T07:52:01.291Z,63360.00
2018-04-28T07:53:01.289Z,67424.00
2018-04-28T07:54:01.288Z,66560.00
2018-04-28T07:55:01.281Z,65120.00
2018-04-28T07:56:01.279Z,62848.00
2018-04-28T07:57:01.276Z,63104.00
2018-04-28T07:58:01.275Z,68128.00
2018-04-28T07:59:01.273Z,64256.00
2018-04-28T08:00:01.273Z,62976.00
2018-04-28T08:01:01.273Z,64864.00
2018-04-28T08:02:01.270Z,69216.00
2018-04-28T08:03:01.273Z,66592.00
2018-04-28T08:04:01.267Z,61792.00
2018-04-28T08:05:01.266Z,67520.00
2018-04-28T08:06:01.266Z,73056.00
2018-04-28T08:07:01.286Z,74304.00
2018-04-28T08:08:01.264Z,75424.00
2018-04-28T08:09:01.263Z,77280.00
2018-04-28T08:10:01.264Z,77184.00
2018-04-28T08:11:01.271Z,74592.00
2018-04-28T08:12:01.263Z,64896.00
2018-04-28T08:13:01.261Z,63264.00
2018-04-28T08:14:01.264Z,60992.00
2018-04-28T08:15:01.265Z,71520.00
2018-04-28T08:16:01.262Z,71392.00
2018-04-28T08:17:01.265Z,64800.00
2018-04-28T08:18:01.264Z,62624.00
2018-04-28T08:19:01.264Z,62688.00
2018-04-28T08:20:01.268Z,69632.00
2018-04-28T08:21:01.265Z,74272.00
2018-04-28T08:22:01.266Z,78272.00
2018-04-28T08:23:01.267Z,78496.00
2018-04-28T08:24:01.275Z,75712.00
2018-04-28T08:25:01.276Z,75136.00
2018-04-28T08:26:01.269Z,72384.00
2018-04-28T08:27:01.271Z,78048.00
2018-04-28T08:28:01.276Z,83488.00
2018-04-28T08:29:01.287Z,78112.00
2018-04-28T08:30:01.273Z,78048.00
2018-04-28T08:31:01.276Z,70720.00
2018-04-28T08:32:01.284Z,69824.00
2018-04-28T08:33:01.282Z,70112.00
2018-04-28T08:34:01.284Z,72256.00
2018-04-28T08:35:01.286Z,74848.00
2018-04-28T08:36:01.281Z,76800.00
2018-04-28T08:37:01.290Z,79712.00
2018-04-28T08:38:01.290Z,79392.00
2018-04-28T08:39:01.290Z,20480.00
2018-04-28T08:40:01.289Z,49120.00
2018-04-28T08:41:01.295Z,4388.00
2018-04-28T08:42:01.294Z,4312.00
2018-04-28T08:43:01.298Z,4208.00
2018-04-28T08:44:01.299Z,4332.00
2018-04-28T08:45:01.302Z,4064.00
2018-04-28T08:46:01.302Z,4044.00
2018-04-28T08:47:01.304Z,4436.00
2018-04-28T08:48:01.308Z,4592.00
2018-04-28T08:49:01.308Z,4516.00
2018-04-28T08:50:01.318Z,4120.00
2018-04-28T08:51:01.378Z,4144.00
2018-04-28T08:52:01.308Z,4244.00
2018-04-28T08:53:01.308Z,4084.00
2018-04-28T08:54:01.317Z,3848.00
2018-04-28T08:55:01.310Z,4040.00
2018-04-28T08:56:01.310Z,4528.00
2018-04-28T08:57:01.314Z,5040.00
2018-04-28T08:58:01.310Z,5140.00
2018-04-28T08:59:01.311Z,3484.00
2018-04-28T09:00:01.310Z,3672.00
2018-04-28T09:01:01.311Z,3932.00
2018-04-28T09:02:01.312Z,4968.00
2018-04-28T09:03:01.310Z,4364.00
2018-04-28T09:04:01.309Z,3328.00
2018-04-28T09:05:01.312Z,5016.00
2018-04-28T09:06:01.307Z,5068.00
2018-04-28T09:07:01.308Z,5212.00
2018-04-28T09:08:01.308Z,4956.00
2018-04-28T09:09:01.324Z,4956.00
2018-04-28T09:10:01.311Z,4976.00
2018-04-28T09:11:01.301Z,5264.00
2018-04-28T09:12:01.300Z,5396.00
2018-04-28T09:13:01.361Z,5420.00
2018-04-28T09:14:01.296Z,4800.00
2018-04-28T09:15:01.294Z,5404.00
2018-04-28T09:16:01.293Z,5508.00
2018-04-28T09:17:01.298Z,5140.00
2018-04-28T09:18:01.288Z,4904.00
2018-04-28T09:19:01.286Z,4844.00
2018-04-28T09:20:01.285Z,4728.00
2018-04-28T09:21:01.280Z,4552.00
2018-04-28T09:22:01.279Z,4432.00
2018-04-28T09:23:01.285Z,4300.00
2018-04-28T09:24:01.274Z,4236.00
2018-04-28T09:25:01.273Z,4308.00
2018-04-28T09:26:01.304Z,4320.00
2018-04-28T09:27:01.265Z,4200.00
2018-04-28T09:28:01.263Z,4264.00
2018-04-28T09:29:01.261Z,4104.00
2018-04-28T09:30:01.261Z,4288.00
2018-04-28T09:31:01.255Z,4400.00
2018-04-28T09:32:01.253Z,4356.00
2018-04-28T09:33:01.330Z,4436.00
2018-04-28T09:34:01.243Z,4444.00
2018-04-28T09:35:01.240Z,4428.00
2018-04-28T09:36:01.238Z,4408.00
2018-04-28T09:37:01.233Z,4360.00
2018-04-28T09:38:01.228Z,4284.00
2018-04-28T09:39:01.226Z,4304.00
2018-04-28T09:40:01.232Z,4452.00
2018-04-28T09:41:01.221Z,4452.00
2018-04-28T09:42:01.216Z,4432.00
2018-04-28T09:43:01.211Z,4424.00
2018-04-28T09:44:01.204Z,4288.00
2018-04-28T09:45:01.200Z,4240.00
2018-04-28T09:46:01.196Z,4188.00
2018-04-28T09:47:01.193Z,4292.00
2018-04-28T09:48:01.187Z,4428.00
2018-04-28T09:49:01.183Z,4440.00
2018-04-28T09:50:01.178Z,4452.00
2018-04-28T09:51:01.175Z,4528.00
2018-04-28T09:52:01.168Z,4540.00
2018-04-28T09:53:01.164Z,4504.00
2018-04-28T09:54:01.159Z,4472.00
2018-04-28T09:55:01.156Z,4460.00
2018-04-28T09:56:01.154Z,4456.00
2018-04-28T09:57:01.153Z,4356.00
2018-04-28T09:58:01.140Z,4384.00
2018-04-28T09:59:01.139Z,4480.00
2018-04-28T10:00:01.132Z,4460.00
2018-04-28T10:01:01.126Z,4520.00
2018-04-28T10:02:01.121Z,4536.00
2018-04-28T10:03:01.115Z,4492.00
2018-04-28T10:04:01.110Z,4488.00
2018-04-28T10:05:01.105Z,4444.00
2018-04-28T10:06:01.128Z,2760.00
2018-04-28T10:07:01.095Z,4232.00
2018-04-28T10:08:01.096Z,4388.00
2018-04-28T10:09:01.082Z,4384.00
2018-04-28T10:10:01.077Z,4448.00
2018-04-28T10:11:01.071Z,4432.00
2018-04-28T10:12:01.065Z,4412.00
2018-04-28T10:13:01.061Z,4532.00
2018-04-28T10:14:01.056Z,4508.00
2018-04-28T10:15:01.050Z,4512.00
2018-04-28T10:16:01.043Z,4528.00
2018-04-28T10:17:01.039Z,4484.00
2018-04-28T10:18:01.032Z,4528.00
2018-04-28T10:19:01.027Z,4556.00
2018-04-28T10:20:01.024Z,4556.00
2018-04-28T10:21:01.015Z,4540.00
2018-04-28T10:22:01.013Z,4552.00
2018-04-28T10:23:01.000Z,4544.00
2018-04-28T10:24:00.996Z,4592.00
2018-04-28T10:25:00.992Z,4604.00
2018-04-28T10:26:00.983Z,4620.00
2018-04-28T10:27:00.978Z,4588.00
2018-04-28T10:28:00.972Z,4604.00
2018-04-28T10:29:00.965Z,4320.00
2018-04-28T10:30:00.958Z,4356.00
2018-04-28T10:31:00.952Z,4616.00
2018-04-28T10:32:00.948Z,4612.00
2018-04-28T10:33:00.942Z,4644.00
2018-04-28T10:34:00.943Z,4608.00
2018-04-28T10:35:00.928Z,4708.00
2018-04-28T10:36:00.929Z,4652.00
2018-04-28T10:37:00.915Z,4628.00
2018-04-28T10:38:00.912Z,4644.00
2018-04-28T10:39:00.909Z,4636.00
2018-04-28T10:40:00.897Z,4516.00
2018-04-28T10:41:00.893Z,4032.00
2018-04-28T10:42:00.890Z,4644.00
2018-04-28T10:43:00.895Z,4628.00
2018-04-28T10:44:00.876Z,4612.00
2018-04-28T10:45:00.868Z,4624.00
2018-04-28T10:46:00.862Z,4664.00
2018-04-28T10:47:00.855Z,4596.00
2018-04-28T10:48:00.847Z,4556.00
2018-04-28T10:49:00.843Z,4436.00
2018-04-28T10:50:00.841Z,4432.00
2018-04-28T10:51:00.828Z,4540.00
2018-04-28T10:52:00.822Z,4572.00
2018-04-28T10:53:00.817Z,4612.00
2018-04-28T10:54:00.817Z,4640.00
2018-04-28T10:55:00.807Z,4604.00
2018-04-28T10:56:00.801Z,4664.00
2018-04-28T10:57:00.791Z,4616.00
2018-04-28T10:58:00.787Z,4672.00
2018-04-28T10:59:00.784Z,4616.00
2018-04-28T11:00:00.771Z,4648.00
2018-04-28T11:01:00.769Z,4668.00
2018-04-28T11:02:00.763Z,4716.00
2018-04-28T11:03:00.755Z,4664.00
2018-04-28T11:04:00.747Z,4676.00
2018-04-28T11:05:00.746Z,4636.00
2018-04-28T11:06:00.739Z,4528.00
2018-04-28T11:07:00.732Z,4596.00
2018-04-28T11:08:00.722Z,4532.00
2018-04-28T11:09:00.718Z,4656.00
2018-04-28T11:10:00.713Z,4688.00
2018-04-28T11:11:00.704Z,4612.00
2018-04-28T11:12:00.697Z,4856.00
2018-04-28T11:13:00.690Z,5088.00
2018-04-28T11:14:00.684Z,5400.00
2018-04-28T11:15:00.683Z,5204.00
2018-04-28T11:16:00.672Z,5292.00
2018-04-28T11:17:00.665Z,5292.00
2018-04-28T11:18:00.659Z,4696.00
2018-04-28T11:19:00.656Z,4716.00
2018-04-28T11:20:00.691Z,5160.00
2018-04-28T11:21:00.641Z,5376.00
2018-04-28T11:22:00.640Z,4744.00
2018-04-28T11:23:00.626Z,4596.00
2018-04-28T11:24:00.621Z,4656.00
2018-04-28T11:25:00.614Z,4664.00
2018-04-28T11:26:00.607Z,4696.00
2018-04-28T11:27:00.603Z,2040.00
2018-04-28T11:28:00.599Z,1920.00
2018-04-28T11:29:00.591Z,1840.00
2018-04-28T11:30:00.582Z,4444.00
2018-04-28T11:31:00.575Z,2316.00
2018-04-28T11:32:00.581Z,2392.00
2018-04-28T11:33:00.640Z,5168.00
2018-04-28T11:34:00.562Z,4432.00
2018-04-28T11:35:00.550Z,5112.00
2018-04-28T11:36:00.543Z,4920.00
2018-04-28T11:37:00.538Z,4792.00
2018-04-28T11:38:00.532Z,4788.00
2018-04-28T11:39:00.523Z,4712.00
2018-04-28T11:40:00.515Z,4228.00
2018-04-28T11:41:00.510Z,4868.00
2018-04-28T11:42:00.511Z,4944.00
2018-04-28T11:43:00.500Z,4780.00
2018-04-28T11:44:00.494Z,3212.00
2018-04-28T11:45:00.483Z,2548.00
2018-04-28T11:46:00.477Z,4936.00
2018-04-28T11:47:00.471Z,6088.00
2018-04-28T11:48:00.468Z,6136.00
2018-04-28T11:49:00.456Z,5812.00
2018-04-28T11:50:00.452Z,5792.00
2018-04-28T11:51:00.446Z,4976.00
2018-04-28T11:52:00.441Z,4908.00
2018-04-28T11:53:00.432Z,4888.00
2018-04-28T11:54:00.428Z,2520.00
2018-04-28T11:55:00.419Z,3268.00
2018-04-28T11:56:00.414Z,5192.00
2018-04-28T11:57:00.405Z,5440.00
2018-04-28T11:58:00.398Z,5848.00
2018-04-28T11:59:00.480Z,5788.00
2018-04-28T12:00:00.384Z,5912.00
2018-04-28T12:01:00.379Z,5304.00
2018-04-28T12:02:00.373Z,5280.00
2018-04-28T12:03:00.367Z,5604.00
2018-04-28T12:04:00.360Z,2652.00
2018-04-28T12:05:00.359Z,2316.00
2018-04-28T12:06:00.353Z,5316.00
2018-04-28T12:07:00.348Z,2276.00
2018-04-28T12:08:00.332Z,2936.00
2018-04-28T12:09:00.326Z,5600.00
2018-04-28T12:10:00.321Z,3448.00
2018-04-28T12:11:00.316Z,5236.00
2018-04-28T12:12:00.307Z,5268.00
2018-04-28T12:13:00.309Z,5444.00
2018-04-28T12:14:00.300Z,5500.00
2018-04-28T12:15:00.287Z,5300.00
2018-04-28T12:16:00.280Z,5116.00
2018-04-28T12:17:00.276Z,5068.00
2018-04-28T12:18:00.274Z,5068.00
2018-04-28T12:19:00.261Z,4964.00
2018-04-28T12:20:00.261Z,2024.00
2018-04-28T12:21:00.353Z,2936.00
2018-04-28T12:22:00.240Z,4708.00
2018-04-28T12:23:00.235Z,4876.00